M I D A S
Marine Information and Data Acquisition System
Tripno 724 of the Zeeleeuw from 2004-05-27 06:15:34 to 2004-05-27 13:42:19
Back to CruiseResearch ActivitiesStationsMapUnderway DataData graphs

EquipmentUnitsComments
TimeDGPSUTC
LatitudeDGPSDM.mWGS84
LongitudeDGPSDM.mWGS84
SpeedMeteo Stationm/sRelative wind speed
DirectionMeteo StationdegRelative wind direction
TemperatureMeteo Stationdeg CelciusAir temperature
PressureMeteo StationPaAtmospheric pressure
HumidityMeteo Station%Relative humidity
Missing or incorrect values are displayed as -999
Metereological data collected by the RV Zeeleeuw from 2004-05-27 06:15:34 to 2004-05-27 13:42:19
                                                                                    Next 1000 lines
Time Latitude Longitude Speed Direction Temperature Pressure Humidity
2004-05-27 06:15:44 51°13.597 2°56.096 2.6 326 11.6 102310 62
2004-05-27 06:15:48 51°13.597 2°56.096 2.8 321 11.6 102310 62
2004-05-27 06:15:53 51°13.597 2°56.096 2.5 333 11.6 102310 62
2004-05-27 06:15:59 51°13.597 2°56.096 2.2 335 11.6 102310 62
2004-05-27 06:16:04 51°13.597 2°56.096 2 326 11.6 102310 62
2004-05-27 06:16:09 51°13.597 2°56.096 2.5 320 11.6 102310 62
2004-05-27 06:16:14 51°13.598 2°56.096 1.9 319 11.6 102300 62
2004-05-27 06:16:18 51°13.598 2°56.096 1.6 320 11.6 102300 62
2004-05-27 06:16:24 51°13.598 2°56.096 1.9 343 11.7 102310 62
2004-05-27 06:16:29 51°13.598 2°56.096 1.6 347 11.7 102310 62
2004-05-27 06:16:32 51°13.598 2°56.096 2.4 347 11.7 102310 63
2004-05-27 06:16:38 51°13.598 2°56.095 2.6 350 11.7 102310 63
2004-05-27 06:16:44 51°13.598 2°56.095 2.4 354 11.7 102310 63
2004-05-27 06:16:49 51°13.598 2°56.095 2.2 326 11.7 102310 63
2004-05-27 06:16:53 51°13.598 2°56.095 1.9 322 11.7 102310 63
2004-05-27 06:16:58 51°13.598 2°56.095 1.4 326 11.7 102310 63
2004-05-27 06:17:03 51°13.598 2°56.095 2.2 315 11.7 102310 63
2004-05-27 06:17:09 51°13.598 2°56.095 2.5 347 11.7 102310 63
2004-05-27 06:17:14 51°13.598 2°56.095 1.8 334 11.7 102300 63
2004-05-27 06:17:18 51°13.598 2°56.095 2.3 3 11.7 102300 63
2004-05-27 06:17:24 51°13.597 2°56.095 3.2 339 11.8 102310 63
2004-05-27 06:17:29 51°13.597 2°56.095 2.8 322 11.8 102310 63
2004-05-27 06:17:32 51°13.597 2°56.095 1.8 6 11.8 102310 63
2004-05-27 06:17:37 51°13.598 2°56.095 2.7 354 11.8 102310 63
2004-05-27 06:17:44 51°13.598 2°56.095 2.5 5 11.8 102310 63
2004-05-27 06:17:48 51°13.598 2°56.095 2.8 4 11.8 102310 63
2004-05-27 06:17:54 51°13.597 2°56.095 2.5 8 11.8 102310 63
2004-05-27 06:17:56 51°13.597 2°56.095 2.2 336 11.8 102310 63
2004-05-27 06:18:02 51°13.597 2°56.095 1.9 322 11.8 102310 62
2004-05-27 06:18:09 51°13.597 2°56.095 3 358 11.8 102310 62
2004-05-27 06:18:13 51°13.597 2°56.095 2.9 351 11.8 102310 62
2004-05-27 06:18:18 51°13.597 2°56.095 2.4 342 11.8 102310 62
2004-05-27 06:18:24 51°13.597 2°56.095 2.9 339 11.8 102310 62
2004-05-27 06:18:29 51°13.597 2°56.095 3.1 343 11.8 102310 62
2004-05-27 06:18:33 51°13.597 2°56.095 2.1 348 11.9 102310 62
2004-05-27 06:18:38 51°13.597 2°56.095 1.8 322 11.9 102310 62
2004-05-27 06:18:44 51°13.597 2°56.095 2.3 342 11.8 102310 62
2004-05-27 06:18:49 51°13.597 2°56.095 2.2 346 11.8 102310 62
2004-05-27 06:18:54 51°13.597 2°56.095 2.4 349 11.8 102310 62
2004-05-27 06:18:59 51°13.597 2°56.095 2.3 36 11.8 102310 62
2004-05-27 06:19:04 51°13.597 2°56.096 2.6 343 11.8 102310 62
2004-05-27 06:19:09 51°13.597 2°56.096 3.4 341 11.8 102310 62
2004-05-27 06:19:14 51°13.597 2°56.096 2.4 336 11.8 102310 62
2004-05-27 06:19:18 51°13.597 2°56.096 2.5 360 11.8 102310 62
2004-05-27 06:19:24 51°13.597 2°56.096 3.3 344 11.8 102310 62
2004-05-27 06:19:29 51°13.597 2°56.096 3.5 345 11.8 102310 62
2004-05-27 06:19:34 51°13.597 2°56.096 3.4 345 11.8 102310 62
2004-05-27 06:19:37 51°13.597 2°56.096 3 348 11.8 102310 62
2004-05-27 06:19:44 51°13.597 2°56.096 2.7 345 11.9 102310 62
2004-05-27 06:19:48 51°13.597 2°56.097 2.7 340 11.9 102310 62
2004-05-27 06:19:53 51°13.597 2°56.097 2.3 345 11.9 102310 62
2004-05-27 06:19:58 51°13.597 2°56.097 2 341 11.9 102310 62
2004-05-27 06:20:04 51°13.597 2°56.097 2.4 349 11.8 102310 62
2004-05-27 06:20:09 51°13.597 2°56.097 2.4 344 11.8 102310 62
2004-05-27 06:20:13 51°13.597 2°56.097 1.4 27 11.8 102310 62
2004-05-27 06:20:16 51°13.597 2°56.097 1.9 18 11.8 102310 62
2004-05-27 06:20:24 51°13.596 2°56.096 3.1 4 11.8 102310 62
2004-05-27 06:20:28 51°13.597 2°56.095 2.6 6 11.8 102310 62
2004-05-27 06:20:33 51°13.597 2°56.094 2.8 351 11.8 102310 62
2004-05-27 06:20:38 51°13.597 2°56.091 2.1 355 11.8 102310 62
2004-05-27 06:20:44 51°13.598 2°56.085 1.4 358 11.8 102310 62
2004-05-27 06:20:49 51°13.6 2°56.08 1.4 21 11.8 102310 62
2004-05-27 06:20:54 51°13.601 2°56.073 1 4 11.8 102310 62
2004-05-27 06:20:58 51°13.602 2°56.068 0.8 4 11.8 102310 62
2004-05-27 06:21:04 51°13.605 2°56.058 0.3 1 11.8 102310 63
2004-05-27 06:21:09 51°13.607 2°56.049 0.2 344 11.8 102310 63
2004-05-27 06:21:14 51°13.609 2°56.04 1.2 226 11.8 102310 63
2004-05-27 06:21:20 51°13.612 2°56.027 2 222 11.8 102310 63
2004-05-27 06:21:24 51°13.614 2°56.018 1.5 219 11.8 102310 63
2004-05-27 06:21:29 51°13.616 2°56.007 1.7 234 11.8 102310 63
2004-05-27 06:21:34 51°13.619 2°55.995 1.2 227 11.8 102320 63
2004-05-27 06:21:40 51°13.622 2°55.98 1.3 193 11.8 102320 63
2004-05-27 06:21:44 51°13.624 2°55.969 1.3 192 11.8 102320 63
2004-05-27 06:21:49 51°13.627 2°55.956 1 193 11.8 102320 63
2004-05-27 06:21:54 51°13.631 2°55.943 1 248 11.8 102320 63
2004-05-27 06:21:58 51°13.634 2°55.933 1.3 218 11.8 102320 63
2004-05-27 06:22:04 51°13.639 2°55.918 1.2 221 11.8 102320 63
2004-05-27 06:22:09 51°13.644 2°55.906 0.7 210 11.8 102320 63
2004-05-27 06:22:14 51°13.648 2°55.894 0.9 186 11.8 102320 63
2004-05-27 06:22:18 51°13.652 2°55.884 1.4 208 11.8 102320 63
2004-05-27 06:22:24 51°13.658 2°55.87 1.5 227 11.7 102320 62
2004-05-27 06:22:29 51°13.663 2°55.858 1.3 224 11.7 102320 62
2004-05-27 06:22:34 51°13.668 2°55.847 1.3 275 11.7 102320 62
2004-05-27 06:22:38 51°13.671 2°55.838 1.9 260 11.7 102320 62
2004-05-27 06:22:44 51°13.676 2°55.825 1 205 11.7 102320 62
2004-05-27 06:22:49 51°13.679 2°55.814 1 207 11.7 102320 62
2004-05-27 06:22:52 51°13.681 2°55.808 1.1 220 11.7 102320 62
2004-05-27 06:22:59 51°13.684 2°55.794 1.7 251 11.7 102320 62
2004-05-27 06:23:04 51°13.686 2°55.784 0.8 264 11.7 102320 62
2004-05-27 06:23:09 51°13.687 2°55.775 0.4 161 11.7 102320 62
2004-05-27 06:23:13 51°13.688 2°55.768 0.5 132 11.7 102310 62
2004-05-27 06:23:17 51°13.689 2°55.762 0.9 122 11.7 102310 62
2004-05-27 06:23:24 51°13.691 2°55.752 0.7 38 11.7 102320 63
2004-05-27 06:23:29 51°13.692 2°55.746 1.3 56 11.7 102320 63
2004-05-27 06:23:34 51°13.692 2°55.74 2.6 63 11.7 102320 63
2004-05-27 06:23:38 51°13.692 2°55.736 1.9 64 11.7 102320 63
2004-05-27 06:23:44 51°13.693 2°55.732 2 60 11.7 102310 63
2004-05-27 06:23:49 51°13.694 2°55.729 1.7 50 11.7 102310 63
2004-05-27 06:23:54 51°13.694 2°55.727 1.8 48 11.7 102320 62
2004-05-27 06:23:58 51°13.695 2°55.725 2.2 40 11.7 102320 62
2004-05-27 06:24:04 51°13.695 2°55.724 2.2 39 11.7 102310 63
2004-05-27 06:24:09 51°13.696 2°55.724 2.2 51 11.7 102310 63
2004-05-27 06:24:14 51°13.697 2°55.724 3.3 63 11.6 102310 62
2004-05-27 06:24:18 51°13.697 2°55.725 3 77 11.6 102310 62
2004-05-27 06:24:22 51°13.698 2°55.726 3.6 59 11.6 102310 62
2004-05-27 06:24:29 51°13.7 2°55.728 2.8 75 11.6 102310 62
2004-05-27 06:24:33 51°13.701 2°55.73 3.7 74 11.6 102310 63
2004-05-27 06:24:39 51°13.703 2°55.732 3.5 70 11.6 102310 63
2004-05-27 06:24:44 51°13.705 2°55.735 3.9 82 11.5 102310 63
2004-05-27 06:24:49 51°13.708 2°55.737 3.8 93 11.5 102310 63
2004-05-27 06:24:53 51°13.71 2°55.739 3.5 76 11.5 102310 62
2004-05-27 06:24:58 51°13.713 2°55.742 3.3 62 11.5 102310 62
2004-05-27 06:25:03 51°13.716 2°55.744 4.8 84 11.4 102310 63
2004-05-27 06:25:09 51°13.719 2°55.747 3.5 80 11.4 102310 63
2004-05-27 06:25:14 51°13.723 2°55.749 3.3 76 11.4 102310 63
2004-05-27 06:25:17 51°13.725 2°55.75 3.6 59 11.4 102310 63
2004-05-27 06:25:24 51°13.729 2°55.752 2.7 69 11.4 102310 64
2004-05-27 06:25:28 51°13.731 2°55.753 2.5 74 11.4 102310 64
2004-05-27 06:25:34 51°13.733 2°55.754 2.7 103 11.4 102310 65
2004-05-27 06:25:38 51°13.734 2°55.754 2.7 104 11.4 102310 65
2004-05-27 06:25:42 51°13.735 2°55.755 2.5 125 11.3 102310 65
2004-05-27 06:25:49 51°13.735 2°55.755 2.9 138 11.3 102310 65
2004-05-27 06:25:53 51°13.734 2°55.756 2.6 106 11.3 102320 65
2004-05-27 06:25:58 51°13.733 2°55.756 3 140 11.3 102320 65
2004-05-27 06:26:04 51°13.73 2°55.757 3.1 131 11.3 102320 65
2004-05-27 06:26:09 51°13.728 2°55.758 2.8 148 11.3 102320 65
2004-05-27 06:26:14 51°13.725 2°55.758 4 135 11.3 102320 65
2004-05-27 06:26:19 51°13.722 2°55.759 3.3 136 11.3 102320 65
2004-05-27 06:26:24 51°13.72 2°55.76 3.2 133 11.3 102320 65
2004-05-27 06:26:29 51°13.719 2°55.76 3.5 134 11.3 102320 65
2004-05-27 06:26:34 51°13.719 2°55.761 3 163 11.3 102320 65
2004-05-27 06:26:38 51°13.719 2°55.761 2.2 130 11.3 102320 65
2004-05-27 06:26:44 51°13.722 2°55.759 2.6 114 11.3 102320 65
2004-05-27 06:26:49 51°13.725 2°55.757 2 99 11.3 102320 65
2004-05-27 06:26:54 51°13.73 2°55.753 3.7 86 11.3 102320 65
2004-05-27 06:26:58 51°13.733 2°55.748 4.1 62 11.3 102320 65
2004-05-27 06:27:04 51°13.74 2°55.74 3.9 51 11.4 102320 67
2004-05-27 06:27:09 51°13.746 2°55.731 3.6 44 11.4 102320 67
2004-05-27 06:27:12 51°13.75 2°55.726 3.3 40 11.4 102320 67
2004-05-27 06:27:18 51°13.758 2°55.714 3 47 11.4 102320 67
2004-05-27 06:27:24 51°13.768 2°55.7 3.6 39 11.3 102320 64
2004-05-27 06:27:29 51°13.776 2°55.689 4.6 69 11.3 102320 64
2004-05-27 06:27:34 51°13.785 2°55.677 4.1 56 11.3 102320 64
2004-05-27 06:27:37 51°13.791 2°55.67 3.7 54 11.3 102320 64
2004-05-27 06:27:44 51°13.804 2°55.653 2.8 40 11.3 102320 64
2004-05-27 06:27:49 51°13.813 2°55.641 3.9 42 11.3 102320 64
2004-05-27 06:27:53 51°13.821 2°55.631 4.9 26 11.3 102320 63
2004-05-27 06:27:58 51°13.831 2°55.62 4.3 56 11.3 102320 63
2004-05-27 06:28:04 51°13.843 2°55.607 3.7 57 11.3 102320 63
2004-05-27 06:28:09 51°13.853 2°55.596 4.1 40 11.3 102320 63
2004-05-27 06:28:14 51°13.863 2°55.586 3.5 40 11.2 102330 63
2004-05-27 06:28:18 51°13.871 2°55.578 3 30 11.2 102330 63
2004-05-27 06:28:24 51°13.884 2°55.567 3.3 48 11.2 102320 63
2004-05-27 06:28:28 51°13.892 2°55.56 3.7 55 11.2 102320 63
2004-05-27 06:28:32 51°13.9 2°55.554 3.1 68 11.2 102320 63
2004-05-27 06:28:37 51°13.91 2°55.547 2.8 57 11.2 102320 63
2004-05-27 06:28:44 51°13.924 2°55.538 3.3 49 11.2 102320 63
2004-05-27 06:28:49 51°13.934 2°55.532 3.3 40 11.2 102320 63
2004-05-27 06:28:54 51°13.943 2°55.527 3.5 42 11.2 102330 64
2004-05-27 06:28:56 51°13.947 2°55.525 3.5 43 11.2 102330 64
2004-05-27 06:29:04 51°13.962 2°55.518 3.2 33 11.2 102330 64
2004-05-27 06:29:09 51°13.971 2°55.513 3 44 11.2 102330 64
2004-05-27 06:29:14 51°13.98 2°55.51 2.9 47 11.2 102320 64
2004-05-27 06:29:17 51°13.985 2°55.507 3.2 40 11.2 102320 64
2004-05-27 06:29:24 51°13.998 2°55.502 3.5 49 11.1 102330 64
2004-05-27 06:29:29 51°14.006 2°55.499 3.6 62 11.1 102330 64
2004-05-27 06:29:33 51°14.013 2°55.496 4.1 59 11.1 102330 65
2004-05-27 06:29:38 51°14.022 2°55.493 3.4 74 11.1 102330 65
2004-05-27 06:29:44 51°14.032 2°55.49 3.8 60 11.1 102330 65
2004-05-27 06:29:49 51°14.04 2°55.487 3.1 59 11.1 102330 65
2004-05-27 06:29:54 51°14.048 2°55.483 4.2 64 11.1 102330 65
2004-05-27 06:29:58 51°14.054 2°55.48 4.2 69 11.1 102330 65
2004-05-27 06:30:04 51°14.065 2°55.474 4.2 61 11.1 102330 65
2004-05-27 06:30:08 51°14.072 2°55.469 3.9 65 11.1 102330 65
2004-05-27 06:30:12 51°14.08 2°55.464 3.8 45 11 102330 65
2004-05-27 06:30:17 51°14.091 2°55.455 3.9 40 11 102330 65
2004-05-27 06:30:24 51°14.107 2°55.443 4.2 27 11 102330 64
2004-05-27 06:30:29 51°14.12 2°55.434 5.5 33 11 102330 64
2004-05-27 06:30:34 51°14.133 2°55.425 5.3 29 11 102330 64
2004-05-27 06:30:38 51°14.144 2°55.417 5.2 34 11 102330 64
2004-05-27 06:30:44 51°14.16 2°55.403 5.7 36 11 102330 65
2004-05-27 06:30:49 51°14.174 2°55.389 5.7 37 11 102330 65
2004-05-27 06:30:54 51°14.187 2°55.374 5.2 45 11 102330 65
2004-05-27 06:30:58 51°14.198 2°55.361 5.2 42 11 102330 65
2004-05-27 06:31:04 51°14.213 2°55.339 4.5 42 10.9 102330 65
2004-05-27 06:31:09 51°14.226 2°55.32 4.6 30 10.9 102330 65
2004-05-27 06:31:13 51°14.236 2°55.305 5.2 20 10.9 102330 65
2004-05-27 06:31:18 51°14.249 2°55.286 5.4 32 10.9 102330 65
2004-05-27 06:31:20 51°14.254 2°55.278 5.6 27 10.9 102330 64
2004-05-27 06:31:29 51°14.276 2°55.24 5.7 17 10.9 102330 64
2004-05-27 06:31:34 51°14.287 2°55.219 5 17 10.9 102330 65
2004-05-27 06:31:38 51°14.296 2°55.201 6.2 22 10.9 102330 65
2004-05-27 06:31:44 51°14.309 2°55.174 6 32 10.9 102330 65
2004-05-27 06:31:49 51°14.321 2°55.151 6.3 17 10.9 102330 65
2004-05-27 06:31:53 51°14.33 2°55.134 5.8 17 10.9 102330 66
2004-05-27 06:31:58 51°14.342 2°55.111 5.6 33 10.9 102330 66
2004-05-27 06:32:02 51°14.352 2°55.093 5.8 24 10.9 102330 66
2004-05-27 06:32:08 51°14.367 2°55.065 7 28 10.9 102330 66
2004-05-27 06:32:13 51°14.378 2°55.042 5.9 31 10.9 102330 67
2004-05-27 06:32:18 51°14.39 2°55.019 7.1 43 10.9 102330 67
2004-05-27 06:32:22 51°14.401 2°55.002 7.2 33 10.9 102330 67
2004-05-27 06:32:28 51°14.418 2°54.978 7 46 10.9 102330 67
2004-05-27 06:32:33 51°14.434 2°54.961 7.5 40 10.9 102330 66
2004-05-27 06:32:38 51°14.449 2°54.945 6.9 47 10.9 102330 66
2004-05-27 06:32:42 51°14.462 2°54.932 6.5 51 10.9 102330 66
2004-05-27 06:32:48 51°14.48 2°54.912 6.7 51 10.9 102330 66
2004-05-27 06:32:53 51°14.496 2°54.895 6.8 44 10.9 102330 68
2004-05-27 06:32:58 51°14.511 2°54.879 7.3 47 10.9 102330 68
2004-05-27 06:33:03 51°14.527 2°54.862 6.7 48 10.9 102320 68
2004-05-27 06:33:08 51°14.542 2°54.845 7.2 42 10.9 102320 68
2004-05-27 06:33:13 51°14.557 2°54.827 5.6 36 10.9 102320 67
2004-05-27 06:33:18 51°14.572 2°54.81 6.5 47 10.9 102320 67
2004-05-27 06:33:24 51°14.59 2°54.789 6.1 48 10.9 102320 68
2004-05-27 06:33:28 51°14.602 2°54.775 6 51 10.9 102320 68
2004-05-27 06:33:33 51°14.616 2°54.758 6.6 48 10.9 102320 67
2004-05-27 06:33:38 51°14.631 2°54.739 5.9 50 10.9 102320 67
2004-05-27 06:33:42 51°14.643 2°54.725 5.8 50 10.9 102330 66
2004-05-27 06:33:49 51°14.664 2°54.701 5.8 50 10.9 102330 66
2004-05-27 06:33:53 51°14.676 2°54.687 5.2 51 10.8 102340 67
2004-05-27 06:33:58 51°14.691 2°54.67 5.3 40 10.8 102340 67
2004-05-27 06:34:02 51°14.703 2°54.656 5.1 39 10.8 102320 66
2004-05-27 06:34:08 51°14.721 2°54.635 6.1 41 10.8 102320 66
2004-05-27 06:34:13 51°14.736 2°54.617 6.1 43 10.8 102330 67
2004-05-27 06:34:18 51°14.751 2°54.599 5.4 50 10.8 102330 67
2004-05-27 06:34:24 51°14.769 2°54.578 6.5 42 10.8 102340 66
2004-05-27 06:34:28 51°14.781 2°54.564 6.2 39 10.8 102340 66
2004-05-27 06:34:33 51°14.796 2°54.546 6.6 38 10.7 102330 65
2004-05-27 06:34:38 51°14.811 2°54.528 6.6 42 10.7 102330 65
2004-05-27 06:34:43 51°14.826 2°54.511 6.4 46 10.7 102330 67
2004-05-27 06:34:49 51°14.845 2°54.489 6.5 43 10.7 102330 67
2004-05-27 06:34:53 51°14.857 2°54.476 6.6 40 10.8 102330 68
2004-05-27 06:34:58 51°14.872 2°54.459 7.1 45 10.8 102330 68
2004-05-27 06:35:04 51°14.891 2°54.438 6.1 40 10.7 102320 68
2004-05-27 06:35:08 51°14.903 2°54.425 6.6 44 10.7 102320 68
2004-05-27 06:35:13 51°14.918 2°54.408 7 45 10.7 102330 68
2004-05-27 06:35:18 51°14.934 2°54.391 7 50 10.7 102330 68
2004-05-27 06:35:24 51°14.952 2°54.37 5.6 48 10.7 102330 68
2004-05-27 06:35:28 51°14.964 2°54.356 5.6 54 10.7 102330 68
2004-05-27 06:35:33 51°14.979 2°54.338 5.7 56 10.7 102330 68
2004-05-27 06:35:38 51°14.994 2°54.32 6 54 10.7 102330 68
2004-05-27 06:35:42 51°15.005 2°54.306 5.3 53 10.7 102320 66
2004-05-27 06:35:49 51°15.026 2°54.28 5.6 54 10.7 102320 66
2004-05-27 06:35:53 51°15.038 2°54.266 6.4 53 10.7 102330 67
2004-05-27 06:35:58 51°15.053 2°54.247 6.7 52 10.7 102330 67
2004-05-27 06:36:00 51°15.059 2°54.24 5.1 58 10.7 102330 67
2004-05-27 06:36:08 51°15.083 2°54.211 5.9 44 10.7 102330 67
2004-05-27 06:36:12 51°15.095 2°54.196 5.6 48 10.7 102340 68
2004-05-27 06:36:18 51°15.113 2°54.174 6 49 10.7 102340 68
2004-05-27 06:36:22 51°15.125 2°54.16 5.9 48 10.7 102320 69
2004-05-27 06:36:29 51°15.146 2°54.134 8.8 52 10.7 102320 69
2004-05-27 06:36:33 51°15.158 2°54.12 7.3 48 10.7 102330 69
2004-05-27 06:36:38 51°15.173 2°54.102 6.2 47 10.7 102330 69
2004-05-27 06:36:44 51°15.192 2°54.08 6.9 53 10.7 102330 69
2004-05-27 06:36:48 51°15.204 2°54.065 7 49 10.7 102330 69
2004-05-27 06:36:53 51°15.219 2°54.047 6.5 42 10.7 102330 68
2004-05-27 06:36:58 51°15.235 2°54.03 6.6 45 10.7 102330 68
2004-05-27 06:37:02 51°15.248 2°54.018 6.9 45 10.7 102330 66
2004-05-27 06:37:08 51°15.267 2°54 7.1 47 10.7 102330 66
2004-05-27 06:37:13 51°15.285 2°53.986 7.1 45 10.7 102330 66
2004-05-27 06:37:18 51°15.302 2°53.973 7.4 43 10.7 102330 66
2004-05-27 06:37:21 51°15.312 2°53.965 7.1 40 10.7 102330 66
2004-05-27 06:37:28 51°15.336 2°53.948 6.9 43 10.7 102330 66
2004-05-27 06:37:33 51°15.354 2°53.935 7.4 46 10.7 102330 66
2004-05-27 06:37:38 51°15.371 2°53.922 6.3 48 10.7 102330 66
2004-05-27 06:37:42 51°15.385 2°53.913 5.7 47 10.6 102320 66
2004-05-27 06:37:48 51°15.406 2°53.898 6.6 42 10.6 102320 66
2004-05-27 06:37:54 51°15.427 2°53.883 6.6 43 10.7 102330 67
2004-05-27 06:37:58 51°15.441 2°53.872 7 41 10.7 102330 67
2004-05-27 06:38:02 51°15.455 2°53.862 8 37 10.6 102320 67
2004-05-27 06:38:09 51°15.479 2°53.844 7.8 41 10.6 102320 67
2004-05-27 06:38:13 51°15.493 2°53.834 7.2 47 10.7 102320 67
2004-05-27 06:38:18 51°15.511 2°53.822 6.8 52 10.7 102320 67
2004-05-27 06:38:21 51°15.521 2°53.814 7.6 32 10.7 102330 68
2004-05-27 06:38:29 51°15.548 2°53.793 8.2 41 10.7 102330 68
2004-05-27 06:38:33 51°15.562 2°53.782 7.7 42 10.7 102320 67
2004-05-27 06:38:38 51°15.58 2°53.769 6.9 45 10.7 102320 67
2004-05-27 06:38:42 51°15.594 2°53.758 7.6 38 10.7 102330 68
2004-05-27 06:38:48 51°15.614 2°53.743 7.4 40 10.7 102330 68
2004-05-27 06:38:53 51°15.631 2°53.73 6.7 42 10.7 102330 68
2004-05-27 06:38:58 51°15.649 2°53.717 7.2 43 10.7 102330 68
2004-05-27 06:39:02 51°15.663 2°53.707 7 41 10.7 102330 67
2004-05-27 06:39:08 51°15.684 2°53.691 6.4 45 10.7 102330 67
2004-05-27 06:39:13 51°15.701 2°53.678 7.3 42 10.7 102330 67
2004-05-27 06:39:18 51°15.718 2°53.665 8 50 10.7 102330 67
2004-05-27 06:39:24 51°15.739 2°53.649 8.1 48 10.7 102330 68
2004-05-27 06:39:28 51°15.753 2°53.638 7.7 48 10.7 102330 68
2004-05-27 06:39:33 51°15.771 2°53.625 6.4 53 10.7 102320 68
2004-05-27 06:39:38 51°15.788 2°53.612 6.8 55 10.7 102320 68
2004-05-27 06:39:42 51°15.802 2°53.602 7.2 52 10.7 102320 68
2004-05-27 06:39:48 51°15.823 2°53.586 7.2 49 10.7 102320 68
2004-05-27 06:39:53 51°15.841 2°53.573 7.1 56 10.7 102310 66
2004-05-27 06:39:58 51°15.858 2°53.56 8 52 10.7 102310 66
2004-05-27 06:40:02 51°15.872 2°53.55 7.6 50 10.7 102320 67
2004-05-27 06:40:08 51°15.893 2°53.534 7.6 52 10.7 102320 67
2004-05-27 06:40:13 51°15.91 2°53.521 7.2 49 10.7 102320 67
2004-05-27 06:40:18 51°15.928 2°53.507 7.7 53 10.7 102320 67
2004-05-27 06:40:22 51°15.942 2°53.497 7.6 53 10.7 102320 67
2004-05-27 06:40:29 51°15.966 2°53.478 7.1 51 10.7 102320 67
2004-05-27 06:40:32 51°15.976 2°53.47 7.3 52 10.7 102310 66
2004-05-27 06:40:38 51°15.997 2°53.454 7.3 53 10.7 102310 66
2004-05-27 06:40:43 51°16.015 2°53.44 6.4 50 10.7 102320 67
2004-05-27 06:40:48 51°16.032 2°53.427 6.7 52 10.7 102320 67
2004-05-27 06:40:53 51°16.05 2°53.413 7.3 53 10.7 102310 67
2004-05-27 06:40:58 51°16.067 2°53.4 7 55 10.7 102310 67
2004-05-27 06:41:02 51°16.081 2°53.389 6.5 49 10.7 102320 68
2004-05-27 06:41:08 51°16.102 2°53.373 6.5 47 10.7 102320 68
2004-05-27 06:41:12 51°16.116 2°53.362 7.7 48 10.7 102320 68
2004-05-27 06:41:18 51°16.137 2°53.346 8.1 44 10.7 102320 68
2004-05-27 06:41:23 51°16.155 2°53.333 7.3 41 10.7 102320 67
2004-05-27 06:41:28 51°16.173 2°53.322 7 40 10.7 102320 67
2004-05-27 06:41:33 51°16.191 2°53.312 7.8 47 10.7 102320 68
2004-05-27 06:41:38 51°16.21 2°53.303 8.9 43 10.7 102320 68
2004-05-27 06:41:42 51°16.225 2°53.297 8 48 10.7 102310 67
2004-05-27 06:41:48 51°16.248 2°53.288 8.2 50 10.7 102310 67
2004-05-27 06:41:53 51°16.267 2°53.282 6.9 47 10.7 102320 67
2004-05-27 06:41:58 51°16.286 2°53.276 7.9 48 10.7 102320 67
2004-05-27 06:42:03 51°16.305 2°53.27 8.5 44 10.7 102310 67
2004-05-27 06:42:08 51°16.324 2°53.264 8.5 47 10.7 102310 67
2004-05-27 06:42:13 51°16.343 2°53.258 8.2 48 10.7 102310 67
2004-05-27 06:42:18 51°16.362 2°53.251 8.1 50 10.7 102310 67
2004-05-27 06:42:22 51°16.377 2°53.246 8.3 48 10.7 102320 68
2004-05-27 06:42:28 51°16.4 2°53.239 8.2 49 10.7 102320 68
2004-05-27 06:42:32 51°16.415 2°53.234 7.9 41 10.7 102310 68
2004-05-27 06:42:38 51°16.438 2°53.226 8.3 45 10.7 102310 68
2004-05-27 06:42:44 51°16.461 2°53.219 7.9 45 10.7 102320 67
2004-05-27 06:42:49 51°16.48 2°53.213 7.3 50 10.7 102320 67
2004-05-27 06:42:52 51°16.492 2°53.209 7.1 46 10.7 102310 68
2004-05-27 06:42:58 51°16.515 2°53.202 7.9 49 10.7 102310 68
2004-05-27 06:43:03 51°16.534 2°53.196 9 49 10.7 102320 67
2004-05-27 06:43:08 51°16.553 2°53.19 8.5 50 10.7 102320 67
2004-05-27 06:43:13 51°16.572 2°53.183 8.2 51 10.7 102310 67
2004-05-27 06:43:18 51°16.592 2°53.176 8.8 49 10.7 102310 67
2004-05-27 06:43:24 51°16.615 2°53.169 9 50 10.7 102320 68
2004-05-27 06:43:28 51°16.63 2°53.165 9.6 47 10.7 102320 68
2004-05-27 06:43:32 51°16.646 2°53.162 9.3 51 10.7 102310 67
2004-05-27 06:43:38 51°16.669 2°53.157 8.5 51 10.7 102310 67
2004-05-27 06:43:44 51°16.692 2°53.152 9.2 44 10.7 102320 66
2004-05-27 06:43:48 51°16.708 2°53.15 8.3 43 10.7 102320 66
2004-05-27 06:43:53 51°16.727 2°53.146 7.8 47 10.7 102310 68
2004-05-27 06:43:58 51°16.747 2°53.142 8 45 10.7 102310 68
2004-05-27 06:44:01 51°16.758 2°53.14 8.6 50 10.7 102320 67
2004-05-27 06:44:08 51°16.786 2°53.134 8.9 44 10.7 102320 67
2004-05-27 06:44:13 51°16.805 2°53.13 7.7 52 10.6 102320 67
2004-05-27 06:44:18 51°16.824 2°53.126 7.7 49 10.6 102320 67
2004-05-27 06:44:20 51°16.832 2°53.124 7.4 53 10.7 102320 68
2004-05-27 06:44:28 51°16.863 2°53.117 7.9 52 10.7 102320 68
2004-05-27 06:44:32 51°16.878 2°53.114 7.5 46 10.7 102320 68
2004-05-27 06:44:36 51°16.893 2°53.11 8 53 10.7 102320 68
2004-05-27 06:44:43 51°16.92 2°53.104 7.5 52 10.7 102320 68
2004-05-27 06:44:49 51°16.943 2°53.098 7.5 52 10.7 102320 68
2004-05-27 06:44:53 51°16.959 2°53.095 8.2 44 10.6 102320 68
2004-05-27 06:44:58 51°16.978 2°53.091 8.2 41 10.6 102320 68
2004-05-27 06:45:04 51°17.002 2°53.087 8.6 37 10.7 102320 69
2004-05-27 06:45:08 51°17.018 2°53.086 8.6 38 10.7 102320 69
2004-05-27 06:45:13 51°17.037 2°53.085 9 34 10.7 102320 68
2004-05-27 06:45:18 51°17.057 2°53.085 9.9   10.7 102320 68
2004-05-27 06:45:22 51°17.073 2°53.085 8.7 37 10.7 102320 68
2004-05-27 06:45:28 51°17.097 2°53.086 9 27 10.7 102320 68
2004-05-27 06:45:33 51°17.118 2°53.088 9.1 27 10.7 102320 69
2004-05-27 06:45:38 51°17.138 2°53.092 9.5 28 10.7 102320 69
2004-05-27 06:45:43 51°17.158 2°53.097 9.9 25 10.7 102310 68
2004-05-27 06:45:48 51°17.178 2°53.106 10.1 27 10.7 102310 68
2004-05-27 06:45:53 51°17.197 2°53.116 9.9 26 10.7 102310 69
2004-05-27 06:45:58 51°17.216 2°53.128 9.9 23 10.7 102310 69
2004-05-27 06:46:02 51°17.231 2°53.138 10.7 23 10.7 102320 68
2004-05-27 06:46:08 51°17.253 2°53.154 10.8 28 10.7 102320 68
2004-05-27 06:46:13 51°17.271 2°53.169 9.1 31 10.7 102330 67
2004-05-27 06:46:16 51°17.282 2°53.177 10.1 29 10.7 102330 67
2004-05-27 06:46:22 51°17.304 2°53.195 9.9 34 10.7 102320 68
2004-05-27 06:46:28 51°17.326 2°53.213 9.6 32 10.7 102320 68
2004-05-27 06:46:32 51°17.34 2°53.225 11.2 25 10.8 102320 68
2004-05-27 06:46:38 51°17.362 2°53.242 11.5 26 10.8 102320 68
2004-05-27 06:46:43 51°17.381 2°53.257 10.2 24 10.8 102320 69
2004-05-27 06:46:49 51°17.403 2°53.274 11.7 32 10.8 102320 69
2004-05-27 06:46:52 51°17.414 2°53.283 9.9 31 10.8 102320 69
2004-05-27 06:46:58 51°17.436 2°53.3 10.4 29 10.8 102320 69
2004-05-27 06:47:02 51°17.451 2°53.311 11.6 26 10.8 102310 68
2004-05-27 06:47:08 51°17.473 2°53.328 10.4 25 10.8 102310 68
2004-05-27 06:47:13 51°17.491 2°53.342 10 25 10.8 102310 68
2004-05-27 06:47:18 51°17.51 2°53.356 9.5   10.8 102310 68
2004-05-27 06:47:22 51°17.524 2°53.367 9.8 27 10.9 102320 68
2004-05-27 06:47:28 51°17.547 2°53.383 9.5 24 10.9 102320 68
2004-05-27 06:47:33 51°17.565 2°53.397 10.2 24 10.8 102320 68
2004-05-27 06:47:38 51°17.584 2°53.411 10.4 26 10.8 102320 68
2004-05-27 06:47:41 51°17.595 2°53.419 9.7 31 10.9 102320 68
2004-05-27 06:47:48 51°17.621 2°53.439 9.4 32 10.9 102320 68
2004-05-27 06:47:52 51°17.636 2°53.45 10.5 33 10.9 102330 68
2004-05-27 06:47:58 51°17.658 2°53.467 10.6 27 10.9 102330 68
2004-05-27 06:48:02 51°17.672 2°53.477 9.5 33 10.9 102320 68
2004-05-27 06:48:08 51°17.695 2°53.494 10.5 32 10.9 102320 68
2004-05-27 06:48:12 51°17.709 2°53.505 10 28 10.9 102320 67
2004-05-27 06:48:18 51°17.732 2°53.521 10.5 29 10.9 102320 67
2004-05-27 06:48:23 51°17.75 2°53.535 10.7 25 10.9 102310 68
2004-05-27 06:48:28 51°17.769 2°53.549 10.4 27 10.9 102310 68
2004-05-27 06:48:33 51°17.787 2°53.562 10.1 22 10.9 102320 67
2004-05-27 06:48:38 51°17.806 2°53.576 9.6 24 10.9 102320 67
2004-05-27 06:48:43 51°17.824 2°53.589 10.3 23 10.9 102330 68
2004-05-27 06:48:48 51°17.843 2°53.603 9.7 24 10.9 102330 68
2004-05-27 06:48:53 51°17.861 2°53.618 11.8 29 10.9 102320 67
2004-05-27 06:48:58 51°17.88 2°53.632 11.2 30 10.9 102320 67
2004-05-27 06:49:03 51°17.898 2°53.647 10.2 26 10.9 102330 67
2004-05-27 06:49:08 51°17.915 2°53.662 9.8 33 10.9 102330 67
2004-05-27 06:49:13 51°17.933 2°53.677 10.8 27 10.9 102320 67
2004-05-27 06:49:18 51°17.951 2°53.692 11.8   10.9 102320 67
2004-05-27 06:49:21 51°17.962 2°53.7 11 27 10.9 102310 67
2004-05-27 06:49:28 51°17.988 2°53.721 11 27 10.9 102310 67
2004-05-27 06:49:33 51°18.005 2°53.736 10 27 10.9 102320 68
2004-05-27 06:49:36 51°18.016 2°53.745 9.8 27 10.9 102320 68
2004-05-27 06:49:43 51°18.042 2°53.767 9.6 26 10.9 102320 68
2004-05-27 06:49:48 51°18.06 2°53.782 10.1 24 10.9 102320 68
2004-05-27 06:49:53 51°18.078 2°53.798 10.1 24 11 102320 67
2004-05-27 06:49:55 51°18.085 2°53.805 10.7 20 11 102320 67
2004-05-27 06:50:03 51°18.112 2°53.833 10.4 24 11 102330 66
2004-05-27 06:50:08 51°18.129 2°53.85 10.2 27 11 102330 66
2004-05-27 06:50:13 51°18.146 2°53.869 9.8 29 10.9 102330 67
2004-05-27 06:50:18 51°18.163 2°53.888 9.9 26 10.9 102330 67
2004-05-27 06:50:24 51°18.183 2°53.911 9.7 23 11 102330 67
2004-05-27 06:50:28 51°18.196 2°53.926 9.6 28 11 102330 67
2004-05-27 06:50:33 51°18.212 2°53.946 10.7 29 11 102310 68
2004-05-27 06:50:38 51°18.228 2°53.967 11 25 11 102310 68
2004-05-27 06:50:44 51°18.246 2°53.992 10.7 27 11 102320 68
2004-05-27 06:50:46 51°18.252 2°54.001 10.4 25 11 102320 68
2004-05-27 06:50:53 51°18.274 2°54.031 10.9 24 11 102320 68
2004-05-27 06:50:56 51°18.282 2°54.045 11.1 19 11 102320 68
2004-05-27 06:51:03 51°18.303 2°54.076 9.9 18 11 102330 69
2004-05-27 06:51:08 51°18.318 2°54.098 10.9 17 11 102330 69
2004-05-27 06:51:13 51°18.333 2°54.121 10.8 20 11 102320 69
2004-05-27 06:51:15 51°18.339 2°54.129 10.8 14 11 102320 69
2004-05-27 06:51:23 51°18.363 2°54.165 10.2 16 11 102320 69
2004-05-27 06:51:28 51°18.378 2°54.187 10.8 21 11 102320 69
2004-05-27 06:51:33 51°18.393 2°54.209 10.5 15 11 102330 67
2004-05-27 06:51:38 51°18.408 2°54.231 11 19 11 102330 67
2004-05-27 06:51:42 51°18.42 2°54.248 11.9 24 11 102330 67
2004-05-27 06:51:49 51°18.44 2°54.279 12 25 11 102330 67
2004-05-27 06:51:52 51°18.449 2°54.293 11.2 18 11 102330 66
2004-05-27 06:51:58 51°18.467 2°54.319 11 18 11 102330 66
2004-05-27 06:52:04 51°18.486 2°54.345 10.3 21 11 102320 66
2004-05-27 06:52:09 51°18.501 2°54.367 11.2 18 11 102320 66
2004-05-27 06:52:12 51°18.51 2°54.38 10.4 18 11 102320 67
2004-05-27 06:52:18 51°18.528 2°54.406 10.5   11 102320 67
2004-05-27 06:52:24 51°18.546 2°54.432 10 20 11 102320 66
2004-05-27 06:52:28 51°18.558 2°54.45 11 18 11 102320 66
2004-05-27 06:52:33 51°18.573 2°54.472 10.6 13 11 102330 65
2004-05-27 06:52:38 51°18.588 2°54.494 4.4 14 11 102330 65
2004-05-27 06:52:44 51°18.607 2°54.52 10.5 14 11 102320 66
2004-05-27 06:52:48 51°18.619 2°54.538 10.1 13 11 102320 66
2004-05-27 06:52:53 51°18.634 2°54.559 9.2 14 11 102330 67
2004-05-27 06:52:58 51°18.65 2°54.581 9.4 19 11 102330 67
2004-05-27 06:53:01 51°18.659 2°54.594 10.1 16 11 102330 66
2004-05-27 06:53:09 51°18.683 2°54.629 9.2 16 11 102330 66
2004-05-27 06:53:13 51°18.695 2°54.647 10.1 14 11 102330 65
2004-05-27 06:53:16 51°18.704 2°54.66 10.1   11 102330 65
2004-05-27 06:53:23 51°18.726 2°54.691 10.5 17 11 102330 65
2004-05-27 06:53:28 51°18.741 2°54.713 10 14 11 102330 65
2004-05-27 06:53:33 51°18.756 2°54.734 10.5 16 11 102330 66
2004-05-27 06:53:38 51°18.772 2°54.756 10.6 19 11 102330 66
2004-05-27 06:53:42 51°18.784 2°54.774 11.8 17 11 102330 66
2004-05-27 06:53:48 51°18.802 2°54.8 10.8 17 11 102330 66
2004-05-27 06:53:53 51°18.818 2°54.822 12.3 16 11 102330 66
2004-05-27 06:53:58 51°18.833 2°54.844 11.8 17 11 102330 66
2004-05-27 06:54:01 51°18.842 2°54.857 12.6 18 11 102320 67
2004-05-27 06:54:08 51°18.863 2°54.888 12.9 17 11 102320 67
2004-05-27 06:54:13 51°18.878 2°54.91 12.6 23 11 102330 67
2004-05-27 06:54:18 51°18.893 2°54.932 12.4   11 102330 67
2004-05-27 06:54:24 51°18.911 2°54.957 13.2 21 11 102320 67
2004-05-27 06:54:28 51°18.924 2°54.974 12.6 17 11 102320 67
2004-05-27 06:54:32 51°18.936 2°54.992 12.8 12 11 102310 66
2004-05-27 06:54:38 51°18.954 2°55.018 13.2 14 11 102310 66
2004-05-27 06:54:43 51°18.969 2°55.039 12.6 15 11 102320 65
2004-05-27 06:54:49 51°18.988 2°55.065 12.6 14 11 102320 65
2004-05-27 06:54:53 51°19 2°55.082 12.9 13 11 102320 66
2004-05-27 06:54:58 51°19.015 2°55.103 11.6 6 11 102320 66
2004-05-27 06:55:03 51°19.03 2°55.125 12.1 6 11 102320 65
2004-05-27 06:55:08 51°19.045 2°55.147 12.2 7 11 102320 65
2004-05-27 06:55:12 51°19.058 2°55.164 11.5 5 11.1 102320 65
2004-05-27 06:55:18 51°19.076 2°55.19 12.3 10 11.1 102320 65
2004-05-27 06:55:24 51°19.095 2°55.216 12 9 11.1 102340 65
2004-05-27 06:55:28 51°19.107 2°55.233 12.2 11 11.1 102340 65
2004-05-27 06:55:32 51°19.119 2°55.25 11 10 11.1 102320 64
2004-05-27 06:55:38 51°19.138 2°55.276 11.2 7 11.1 102320 64
2004-05-27 06:55:43 51°19.153 2°55.298 13.6 8 11.1 102320 64
2004-05-27 06:55:48 51°19.168 2°55.32 13 2 11.1 102320 64
2004-05-27 06:55:53 51°19.183 2°55.341 13.7 5 11.1 102320 64
2004-05-27 06:55:58 51°19.198 2°55.363 11 8 11.1 102320 64
2004-05-27 06:56:04 51°19.216 2°55.389 11.2 9 11.1 102320 64
2004-05-27 06:56:08 51°19.228 2°55.406 13.2 9 11.1 102320 64
2004-05-27 06:56:13 51°19.243 2°55.427 13 8 11.1 102320 63
2004-05-27 06:56:18 51°19.258 2°55.448 14.6   11.1 102320 63
2004-05-27 06:56:24 51°19.277 2°55.474 14.8 6 11.1 102310 63
2004-05-27 06:56:26 51°19.283 2°55.482 14.6 4 11.1 102310 63
2004-05-27 06:56:33 51°19.304 2°55.513 13.5 5 11.1 102320 63
2004-05-27 06:56:36 51°19.313 2°55.525 13.5 4 11.1 102320 63
2004-05-27 06:56:44 51°19.337 2°55.56 13.6 6 11.1 102320 64
2004-05-27 06:56:48 51°19.349 2°55.577 14 6 11.1 102320 64
2004-05-27 06:56:53 51°19.365 2°55.598 13.8 9 11.1 102310 63
2004-05-27 06:56:58 51°19.38 2°55.62 13.4 6 11.1 102310 63
2004-05-27 06:57:03 51°19.395 2°55.641 13.9 8 11.1 102330 64
2004-05-27 06:57:08 51°19.41 2°55.663 13.6 8 11.1 102330 64
2004-05-27 06:57:12 51°19.422 2°55.68 13.6 7 11.1 102320 63
2004-05-27 06:57:18 51°19.44 2°55.707 13.4 357 11.1 102320 63
2004-05-27 06:57:24 51°19.456 2°55.735 13.2 2 11.1 102320 63
2004-05-27 06:57:28 51°19.467 2°55.754 12.3 356 11.1 102320 63
2004-05-27 06:57:33 51°19.48 2°55.778 12.7 355 11.1 102320 63
2004-05-27 06:57:38 51°19.493 2°55.803 12.2 358 11.1 102320 63
2004-05-27 06:57:41 51°19.501 2°55.818 12.3 352 11.1 102320 64
2004-05-27 06:57:48 51°19.518 2°55.853 11.9 355 11.1 102320 64
2004-05-27 06:57:53 51°19.531 2°55.879 12.8 357 11.1 102310 62
2004-05-27 06:57:58 51°19.543 2°55.904 14 356 11.1 102310 62
2004-05-27 06:58:02 51°19.553 2°55.924 13.7 357 11.1 102320 62
2004-05-27 06:58:06 51°19.563 2°55.944 13.8 358 11.1 102320 62
2004-05-27 06:58:13 51°19.581 2°55.98 14.1 358 11.1 102320 62
2004-05-27 06:58:16 51°19.588 2°55.995 12.8 360 11.1 102320 62
2004-05-27 06:58:21 51°19.601 2°56.02 12.3 2 11.1 102310 64
2004-05-27 06:58:29 51°19.621 2°56.06 12.7   11.1 102310 64
2004-05-27 06:58:33 51°19.631 2°56.08 12.8 359 11.1 102310 63
2004-05-27 06:58:38 51°19.644 2°56.105 13.1 358 11.1 102310 63
2004-05-27 06:58:42 51°19.654 2°56.125 12.6 358 11.1 102310 62
2004-05-27 06:58:48 51°19.67 2°56.155 12 360 11.1 102310 62
2004-05-27 06:58:53 51°19.682 2°56.18 12.4   11.1 102320 62
2004-05-27 06:58:58 51°19.695 2°56.205 11.9 2 11.1 102320 62
2004-05-27 06:59:03 51°19.708 2°56.23 11.8 2 11.1 102320 62
2004-05-27 06:59:08 51°19.72 2°56.255 12.1 359 11.1 102320 62
2004-05-27 06:59:13 51°19.733 2°56.28 13.3 358 11.1 102310 63
2004-05-27 06:59:18 51°19.746 2°56.306 12.4 359 11.1 102310 63
2004-05-27 06:59:21 51°19.754 2°56.32 12.3 1 11.1 102320 62
2004-05-27 06:59:29 51°19.774 2°56.361 12.2 357 11.1 102320 62
2004-05-27 06:59:33 51°19.785 2°56.381 12.2   11.1 102330 62
2004-05-27 06:59:38 51°19.797 2°56.406 12.2 359 11.1 102330 62
2004-05-27 06:59:42 51°19.808 2°56.426 12.2 2 11.1 102310 62
2004-05-27 06:59:46 51°19.817 2°56.446 12 1 11.1 102310 62
2004-05-27 06:59:52 51°19.833 2°56.476 12.4 357 11.1 102320 62
2004-05-27 06:59:57 51°19.846 2°56.5 13.3 356 11.1 102320 62
2004-05-27 07:00:03 51°19.861 2°56.53 12.5 358 11.1 102320 62
2004-05-27 07:00:08 51°19.874 2°56.555 12.2 357 11.1 102320 62
2004-05-27 07:00:13 51°19.887 2°56.58 13 359 11.2 102340 63
2004-05-27 07:00:18 51°19.9 2°56.605 12.3 359 11.2 102340 63
2004-05-27 07:00:24 51°19.915 2°56.635 13.2 356 11.2 102310 63
2004-05-27 07:00:28 51°19.926 2°56.655 12.6 356 11.2 102310 63
2004-05-27 07:00:33 51°19.938 2°56.68 13.1 355 11.1 102310 62
2004-05-27 07:00:38 51°19.951 2°56.706 12.2 356 11.1 102310 62
2004-05-27 07:00:43 51°19.964 2°56.73 11.9 2 11.1 102330 62
2004-05-27 07:00:48 51°19.977 2°56.756 11.7 359 11.1 102330 62
2004-05-27 07:00:53 51°19.99 2°56.78 11.6 1 11.1 102310 61
2004-05-27 07:00:58 51°20.003 2°56.805 12.2 360 11.1 102310 61
2004-05-27 07:01:04 51°20.018 2°56.835 11.4 358 11.1 102310 61
2004-05-27 07:01:09 51°20.031 2°56.86 11.9 1 11.1 102310 61
2004-05-27 07:01:12 51°20.039 2°56.875 12.3 1 11.1 102320 61
2004-05-27 07:01:18 51°20.055 2°56.905 12.3 1 11.1 102320 61
2004-05-27 07:01:24 51°20.07 2°56.934 11.9 357 11.1 102330 62
2004-05-27 07:01:28 51°20.08 2°56.954 12.4 2 11.1 102330 62
2004-05-27 07:01:33 51°20.093 2°56.979 12.3 2 11.2 102310 63
2004-05-27 07:01:38 51°20.106 2°57.005 12.4 3 11.2 102310 63
2004-05-27 07:01:44 51°20.122 2°57.035 13   11.2 102320 64
2004-05-27 07:01:47 51°20.129 2°57.05 12.1 1 11.2 102320 64
2004-05-27 07:01:53 51°20.145 2°57.08 11.4 2 11.2 102320 64
2004-05-27 07:01:58 51°20.158 2°57.105 12.1 360 11.2 102320 64
2004-05-27 07:02:02 51°20.168 2°57.125 13.7 359 11.2 102330 64
2004-05-27 07:02:08 51°20.183 2°57.155 13 358 11.2 102330 64
2004-05-27 07:02:13 51°20.196 2°57.18 13.3 357 11.2 102320 62
2004-05-27 07:02:18 51°20.209 2°57.206 12.3 359 11.2 102320 62
2004-05-27 07:02:22 51°20.22 2°57.225 12.6 357 11.2 102320 63
2004-05-27 07:02:28 51°20.235 2°57.255 12.5 359 11.2 102320 63
2004-05-27 07:02:33 51°20.247 2°57.281 12.6 357 11.2 102320 62
2004-05-27 07:02:38 51°20.26 2°57.305 12.3 2 11.2 102320 62
2004-05-27 07:02:43 51°20.273 2°57.331 11.6 7 11.2 102310 62
2004-05-27 07:02:48 51°20.286 2°57.357 12.2 1 11.2 102310 62
2004-05-27 07:02:53 51°20.299 2°57.381 13.2 2 11.2 102320 62
2004-05-27 07:02:58 51°20.311 2°57.407 12.5 6 11.2 102320 62
2004-05-27 07:03:02 51°20.322 2°57.426 12.3 4 11.2 102320 64
2004-05-27 07:03:09 51°20.34 2°57.462 12.4 5 11.2 102320 64
2004-05-27 07:03:12 51°20.348 2°57.476 11.6 9 11.2 102330 66
2004-05-27 07:03:17 51°20.361 2°57.501 11.6 10 11.2 102330 66
2004-05-27 07:03:24 51°20.379 2°57.537 11.6 7 11.2 102320 63
2004-05-27 07:03:29 51°20.392 2°57.562 11.7 11 11.2 102320 63
2004-05-27 07:03:32 51°20.4 2°57.577 12.6 6 11.2 102330 62
2004-05-27 07:03:38 51°20.415 2°57.607 11.9 2 11.2 102330 62
2004-05-27 07:03:42 51°20.426 2°57.628 11.9 360 11.2 102330 63
2004-05-27 07:03:48 51°20.441 2°57.657 12.6 358 11.2 102330 63
2004-05-27 07:03:53 51°20.454 2°57.683 12.6 359 11.2 102330 63
2004-05-27 07:03:58 51°20.467 2°57.708 11.9 1 11.2 102330 63
2004-05-27 07:04:01 51°20.475 2°57.723 11.3   11.2 102330 62
2004-05-27 07:04:09 51°20.495 2°57.764 11.9   11.2 102330 62
2004-05-27 07:04:12 51°20.503 2°57.778 11.5 1 11.2 102330 62
2004-05-27 07:04:18 51°20.518 2°57.809 12 1 11.2 102330 62
2004-05-27 07:04:22 51°20.53 2°57.828 13.3 7 11.2 102310 61
2004-05-27 07:04:29 51°20.547 2°57.864 13 5 11.2 102310 61
2004-05-27 07:04:33 51°20.558 2°57.884 12.8 4 11.2 102330 63
2004-05-27 07:04:38 51°20.57 2°57.909 13 4 11.2 102330 63
2004-05-27 07:04:42 51°20.581 2°57.929 12.5 7 11.2 102320 64
2004-05-27 07:04:49 51°20.599 2°57.964 12.8 6 11.2 102320 64
2004-05-27 07:04:53 51°20.609 2°57.984 12.8 6 11.2 102330 62
2004-05-27 07:04:58 51°20.622 2°58.009 12.7 4 11.2 102330 62
2004-05-27 07:05:03 51°20.635 2°58.034 12.7 2 11.2 102320 62
2004-05-27 07:05:08 51°20.648 2°58.059 14.2 360 11.2 102320 62
2004-05-27 07:05:13 51°20.661 2°58.084 13.2 3 11.2 102330 63
2004-05-27 07:05:16 51°20.668 2°58.099 13.2 3 11.2 102330 63
2004-05-27 07:05:23 51°20.686 2°58.134 13.7 2 11.2 102330 64
2004-05-27 07:05:29 51°20.702 2°58.164 13.5   11.2 102330 64
2004-05-27 07:05:33 51°20.712 2°58.184 11.8 4 11.3 102320 63
2004-05-27 07:05:38 51°20.724 2°58.209 12.3 6 11.3 102320 63
2004-05-27 07:05:42 51°20.735 2°58.23 12.5 4 11.2 102330 61
2004-05-27 07:05:48 51°20.75 2°58.259 12.1 3 11.2 102330 61
2004-05-27 07:05:52 51°20.76 2°58.279 13.2 2 11.2 102320 61
2004-05-27 07:05:58 51°20.775 2°58.309 13.8 2 11.2 102320 61
2004-05-27 07:06:03 51°20.788 2°58.334 14.1 3 11.2 102330 61
2004-05-27 07:06:08 51°20.8 2°58.36 13.5 5 11.2 102330 61
2004-05-27 07:06:12 51°20.811 2°58.38 13.5 4 11.2 102330 63
2004-05-27 07:06:17 51°20.823 2°58.404 13.8 2 11.2 102330 63
2004-05-27 07:06:21 51°20.834 2°58.424 12.4 4 11.2 102320 62
2004-05-27 07:06:29 51°20.854 2°58.464 12.6 2 11.2 102320 62
2004-05-27 07:06:33 51°20.864 2°58.484 12.6 5 11.2 102320 61
2004-05-27 07:06:38 51°20.877 2°58.509 12.6 6 11.2 102320 61
2004-05-27 07:06:42 51°20.888 2°58.529 12.9 7 11.2 102320 61
2004-05-27 07:06:49 51°20.906 2°58.563 12.5 5 11.2 102320 61
2004-05-27 07:06:53 51°20.916 2°58.584 11.3 10 11.2 102330 63
2004-05-27 07:06:57 51°20.926 2°58.604 11.8 7 11.2 102330 63
2004-05-27 07:07:04 51°20.944 2°58.639 12 4 11.2 102330 62
2004-05-27 07:07:09 51°20.957 2°58.665 11.8 3 11.2 102330 62
2004-05-27 07:07:13 51°20.967 2°58.685 11 359 11.2 102330 61
2004-05-27 07:07:18 51°20.978 2°58.712 11.5 356 11.2 102330 61
2004-05-27 07:07:21 51°20.986 2°58.727 11.3 358 11.2 102340 60
2004-05-27 07:07:28 51°21.002 2°58.765 11.2 356 11.2 102340 60
2004-05-27 07:07:33 51°21.013 2°58.792 10.6 357 11.2 102340 63
2004-05-27 07:07:38 51°21.025 2°58.818 11.3 357 11.2 102340 63
2004-05-27 07:07:44 51°21.039 2°58.85 11.6 357 11.2 102320 61
2004-05-27 07:07:48 51°21.048 2°58.872 11.8 358 11.2 102320 61
2004-05-27 07:07:53 51°21.059 2°58.899 11.4 352 11.2 102340 63
2004-05-27 07:07:58 51°21.07 2°58.926 11.5 350 11.2 102340 63
2004-05-27 07:08:04 51°21.083 2°58.96 12.1 358 11.2 102330 62
2004-05-27 07:08:08 51°21.091 2°58.982 11.7 357 11.2 102330 62
2004-05-27 07:08:13 51°21.1 2°59.01 11.6 351 11.2 102320 63
2004-05-27 07:08:18 51°21.109 2°59.039 12.4 353 11.2 102320 63
2004-05-27 07:08:22 51°21.116 2°59.062 11.5 352 11.3 102330 64
2004-05-27 07:08:28 51°21.127 2°59.096 11.7 356 11.3 102330 64
2004-05-27 07:08:33 51°21.136 2°59.125 12.1 357 11.2 102320 62
2004-05-27 07:08:38 51°21.145 2°59.153 12.3 1 11.2 102320 62
2004-05-27 07:08:43 51°21.155 2°59.182 11.4 2 11.2 102320 61
2004-05-27 07:08:49 51°21.168 2°59.215 11.1   11.2 102320 61
2004-05-27 07:08:53 51°21.177 2°59.236 11.7 359 11.3 102330 63
2004-05-27 07:08:58 51°21.189 2°59.263 11.9 356 11.3 102330 63
2004-05-27 07:09:02 51°21.198 2°59.283 11.8 356 11.2 102320 62
2004-05-27 07:09:08 51°21.213 2°59.314 12 359 11.2 102320 62
2004-05-27 07:09:13 51°21.226 2°59.34 12 3 11.2 102330 61
2004-05-27 07:09:18 51°21.239 2°59.365 11.9 7 11.2 102330 61
2004-05-27 07:09:24 51°21.255 2°59.395 11.7 9 11.2 102330 62
2004-05-27 07:09:29 51°21.268 2°59.419 12 4 11.2 102330 62
2004-05-27 07:09:33 51°21.279 2°59.439 13.7 7 11.2 102330 62
2004-05-27 07:09:38 51°21.293 2°59.463 13.7 7 11.2 102330 62
2004-05-27 07:09:43 51°21.306 2°59.487 13 6 11.3 102330 63
2004-05-27 07:09:49 51°21.323 2°59.516 13.6 5 11.3 102330 63
2004-05-27 07:09:53 51°21.334 2°59.535 13.2 5 11.3 102340 65
2004-05-27 07:09:58 51°21.347 2°59.559 12.9 4 11.3 102340 65
2004-05-27 07:10:04 51°21.364 2°59.589 12.2 3 11.3 102330 64
2004-05-27 07:10:08 51°21.375 2°59.608 12.7 4 11.3 102330 64
2004-05-27 07:10:13 51°21.388 2°59.633 12.2 3 11.3 102330 62
2004-05-27 07:10:18 51°21.402 2°59.657 11.8 3 11.3 102330 62
2004-05-27 07:10:22 51°21.413 2°59.676 11.6 6 11.3 102330 64
2004-05-27 07:10:28 51°21.429 2°59.706 11.3 5 11.3 102330 64
2004-05-27 07:10:32 51°21.44 2°59.725 11.9 6 11.3 102340 62
2004-05-27 07:10:38 51°21.457 2°59.755 11.6 2 11.3 102340 62
2004-05-27 07:10:43 51°21.47 2°59.779 11.1 2 11.3 102330 61
2004-05-27 07:10:48 51°21.484 2°59.804 11.5 4 11.3 102330 61
2004-05-27 07:10:52 51°21.495 2°59.823 12.3 3 11.3 102330 63
2004-05-27 07:10:57 51°21.509 2°59.848 12 3 11.3 102330 63
2004-05-27 07:11:01 51°21.52 2°59.868 11.6 3 11.3 102330 63
2004-05-27 07:11:09 51°21.541 2°59.907 12.1 3 11.3 102330 63
2004-05-27 07:11:12 51°21.549 2°59.922 11.7 2 11.3 102340 62
2004-05-27 07:11:18 51°21.566 2°59.952 11.4 357 11.3 102340 62
2004-05-27 07:11:22 51°21.576 2°59.971 11.9 359 11.3 102330 61
2004-05-27 07:11:29 51°21.595 3°0.006 11.5 356 11.3 102330 61
2004-05-27 07:11:33 51°21.606 3°0.025 12.5 358 11.3 102340 61
2004-05-27 07:11:38 51°21.62 3°0.05 13.6 1 11.3 102340 61
2004-05-27 07:11:44 51°21.636 3°0.08 12.3 3 11.3 102330 61
2004-05-27 07:11:49 51°21.649 3°0.105 12.1 4 11.3 102330 61
2004-05-27 07:11:53 51°21.66 3°0.125 12.2 2 11.3 102330 62
2004-05-27 07:11:58 51°21.673 3°0.15 12.3   11.3 102330 62
2004-05-27 07:12:04 51°21.69 3°0.179 12.2 358 11.3 102320 61
2004-05-27 07:12:08 51°21.701 3°0.198 12.2 357 11.3 102320 61
2004-05-27 07:12:13 51°21.714 3°0.223 11.1 358 11.3 102330 60
2004-05-27 07:12:18 51°21.728 3°0.248 11.4 357 11.3 102330 60
2004-05-27 07:12:24 51°21.744 3°0.278 11.5 356 11.3 102330 61
2004-05-27 07:12:26 51°21.75 3°0.287 11.3 357 11.3 102330 61
2004-05-27 07:12:33 51°21.768 3°0.322 12.3 358 11.3 102330 62
2004-05-27 07:12:38 51°21.782 3°0.346 11.9 358 11.3 102330 62
2004-05-27 07:12:44 51°21.798 3°0.376 12.6 1 11.3 102330 62
2004-05-27 07:12:48 51°21.809 3°0.396 12.2 1 11.3 102330 62
2004-05-27 07:12:54 51°21.825 3°0.425 13.4 2 11.3 102330 62
2004-05-27 07:12:58 51°21.836 3°0.445 13.2 1 11.3 102330 62
2004-05-27 07:13:02 51°21.847 3°0.464 12.3 1 11.3 102330 63
2004-05-27 07:13:09 51°21.866 3°0.499 13.2 3 11.3 102330 63
2004-05-27 07:13:12 51°21.873 3°0.514 12.2 6 11.3 102330 62
2004-05-27 07:13:17 51°21.887 3°0.538 12.7 1 11.3 102330 62
2004-05-27 07:13:24 51°21.906 3°0.573 12 5 11.3 102330 62
2004-05-27 07:13:29 51°21.919 3°0.597 12.8 6 11.3 102330 62
2004-05-27 07:13:32 51°21.927 3°0.612 13.4 4 11.3 102320 63
2004-05-27 07:13:38 51°21.943 3°0.641 12.8 8 11.3 102320 63
2004-05-27 07:13:42 51°21.954 3°0.661 12.3 4 11.4 102330 65
2004-05-27 07:13:48 51°21.97 3°0.691 11.8 6 11.4 102330 65
2004-05-27 07:13:53 51°21.983 3°0.715 11.8 1 11.4 102340 63
2004-05-27 07:13:58 51°21.997 3°0.739 12.4 358 11.4 102340 63
2004-05-27 07:14:01 51°22.005 3°0.754 11.9 359 11.3 102320 61
2004-05-27 07:14:09 51°22.026 3°0.793 12.7 2 11.3 102320 61
2004-05-27 07:14:12 51°22.034 3°0.809 13.3 359 11.4 102340 63
2004-05-27 07:14:18 51°22.05 3°0.838 12.5 4 11.4 102340 63
2004-05-27 07:14:22 51°22.061 3°0.857 11.9 4 11.4 102320 62
2004-05-27 07:14:29 51°22.08 3°0.892 11.5 4 11.4 102320 62
2004-05-27 07:14:33 51°22.09 3°0.911 11.7 359 11.4 102340 62
2004-05-27 07:14:38 51°22.104 3°0.936 12 1 11.4 102340 62
2004-05-27 07:14:42 51°22.114 3°0.956 11.7   11.3 102330 61
2004-05-27 07:14:49 51°22.133 3°0.99 12.3 8 11.3 102330 61
2004-05-27 07:14:52 51°22.14 3°1.005 12.1 1 11.4 102330 62
2004-05-27 07:14:57 51°22.154 3°1.03 12.4 6 11.4 102330 62
2004-05-27 07:15:04 51°22.172 3°1.065 12.3 1 11.3 102340 62
2004-05-27 07:15:09 51°22.185 3°1.089 13.5 3 11.3 102340 62
2004-05-27 07:15:13 51°22.196 3°1.11 13.1 4 11.4 102340 63
2004-05-27 07:15:18 51°22.209 3°1.134 12.8 7 11.4 102340 63
2004-05-27 07:15:23 51°22.223 3°1.159 12.2 6 11.4 102340 63
2004-05-27 07:15:29 51°22.239 3°1.188 12 3 11.4 102340 63
2004-05-27 07:15:33 51°22.249 3°1.208 12.9 2 11.4 102340 61
2004-05-27 07:15:37 51°22.26 3°1.228 12.4 359 11.4 102340 61
2004-05-27 07:15:44 51°22.279 3°1.262 12.4 359 11.4 102340 61
2004-05-27 07:15:49 51°22.292 3°1.287 13.5 356 11.4 102340 61
2004-05-27 07:15:52 51°22.301 3°1.301 13.5   11.4 102340 61
2004-05-27 07:15:58 51°22.316 3°1.331 13.8 360 11.4 102340 61
2004-05-27 07:16:04 51°22.332 3°1.361 13.4 359 11.4 102340 62
2004-05-27 07:16:08 51°22.343 3°1.38 13.5 357 11.4 102340 62
2004-05-27 07:16:12 51°22.353 3°1.4 12.8 355 11.4 102330 63
2004-05-27 07:16:16 51°22.364 3°1.419 12.3 355 11.4 102330 63
2004-05-27 07:16:24 51°22.385 3°1.459 12.6 356 11.4 102330 62
2004-05-27 07:16:27 51°22.393 3°1.473 12.9 359 11.4 102330 62
2004-05-27 07:16:33 51°22.409 3°1.503 12.3 1 11.4 102330 62
2004-05-27 07:16:37 51°22.419 3°1.523 12.2 2 11.4 102330 62
2004-05-27 07:16:44 51°22.438 3°1.557 11.1 359 11.4 102340 63
2004-05-27 07:16:49 51°22.451 3°1.581 11.6 359 11.4 102340 63
2004-05-27 07:16:53 51°22.462 3°1.601 11.9 357 11.4 102340 62
2004-05-27 07:16:58 51°22.475 3°1.625 11.7 1 11.4 102340 62
2004-05-27 07:17:03 51°22.488 3°1.649 12.1 1 11.4 102340 61
2004-05-27 07:17:08 51°22.502 3°1.674 12.5 359 11.4 102340 61
2004-05-27 07:17:13 51°22.515 3°1.698 11.1 2 11.4 102340 60
2004-05-27 07:17:18 51°22.528 3°1.723 13 359 11.4 102340 60
2004-05-27 07:17:21 51°22.536 3°1.737 12.4 353 11.4 102340 61
2004-05-27 07:17:29 51°22.557 3°1.777 11.6 353 11.4 102340 61
2004-05-27 07:17:33 51°22.568 3°1.797 11.7 352 11.4 102340 61
2004-05-27 07:17:38 51°22.581 3°1.821 10.8 354 11.4 102340 61
2004-05-27 07:17:42 51°22.591 3°1.841 11.9 352 11.4 102340 62
2004-05-27 07:17:46 51°22.602 3°1.86 11.3 355 11.4 102340 62
2004-05-27 07:17:52 51°22.618 3°1.89 12.1 355 11.4 102330 62
2004-05-27 07:17:57 51°22.631 3°1.914 11.4 352 11.4 102330 62
2004-05-27 07:18:03 51°22.647 3°1.943 10.5 356 11.4 102340 62
2004-05-27 07:18:08 51°22.66 3°1.968 11.3 356 11.4 102340 62
2004-05-27 07:18:13 51°22.673 3°1.992 11.3   11.4 102330 62
2004-05-27 07:18:18 51°22.686 3°2.016 11.5 355 11.4 102330 62
2004-05-27 07:18:24 51°22.702 3°2.045 12.2 353 11.4 102340 63
2004-05-27 07:18:28 51°22.713 3°2.063 11.6 356 11.4 102340 63
2004-05-27 07:18:33 51°22.727 3°2.085 12.1 360 11.4 102340 62
2004-05-27 07:18:38 51°22.743 3°2.105 12.2 5 11.4 102340 62
2004-05-27 07:18:43 51°22.759 3°2.123 12.2 8 11.4 102340 62
2004-05-27 07:18:48 51°22.776 3°2.139 12.5 7 11.4 102340 62
2004-05-27 07:18:53 51°22.794 3°2.152 12.4 17 11.4 102340 63
2004-05-27 07:18:58 51°22.812 3°2.162 12.7 17 11.4 102340 63
2004-05-27 07:19:03 51°22.831 3°2.169 11.3 20 11.4 102350 61
2004-05-27 07:19:09 51°22.854 3°2.174 11.2 19 11.4 102350 61
2004-05-27 07:19:13 51°22.869 3°2.175 10.8 22 11.4 102340 63
2004-05-27 07:19:18 51°22.889 3°2.176 10.8 24 11.4 102340 63
2004-05-27 07:19:23 51°22.908 3°2.175 11.6 19 11.4 102350 63
2004-05-27 07:19:28 51°22.927 3°2.174 11.9 24 11.4 102350 63
2004-05-27 07:19:32 51°22.943 3°2.172 12.3 23 11.4 102340 62
2004-05-27 07:19:38 51°22.966 3°2.169 12.1 26 11.4 102340 62
2004-05-27 07:19:42 51°22.981 3°2.168 12.1 24 11.4 102350 63
2004-05-27 07:19:49 51°23.009 3°2.166 12.8 24 11.4 102350 63
2004-05-27 07:19:53 51°23.024 3°2.165 11.6 24 11.4 102340 63
2004-05-27 07:19:58 51°23.044 3°2.165 11.4 24 11.4 102340 63
2004-05-27 07:20:03 51°23.064 3°2.165 11.5 25 11.4 102340 61
2004-05-27 07:20:08 51°23.083 3°2.165 11.9 22 11.4 102340 61
2004-05-27 07:20:13 51°23.103 3°2.166 11.7 20 11.4 102350 62
2004-05-27 07:20:17 51°23.119 3°2.168 11.8 22 11.4 102350 62
2004-05-27 07:20:24 51°23.146 3°2.171 11.3 19 11.4 102340 61
2004-05-27 07:20:29 51°23.166 3°2.173 11.4 19 11.4 102340 61
2004-05-27 07:20:33 51°23.182 3°2.176 11.4 20 11.4 102350 61
2004-05-27 07:20:38 51°23.201 3°2.178 11.5 20 11.4 102350 61
2004-05-27 07:20:42 51°23.217 3°2.18 11.6 19 11.4 102350 63
2004-05-27 07:20:48 51°23.241 3°2.183 11.8 15 11.4 102350 63
2004-05-27 07:20:53 51°23.26 3°2.186 11.3 19 11.3 102340 61
2004-05-27 07:20:58 51°23.28 3°2.188 11.7 17 11.3 102340 61
2004-05-27 07:21:04 51°23.304 3°2.19 11.9 19 11.3 102350 61
2004-05-27 07:21:08 51°23.319 3°2.193 11.6 17 11.3 102350 61
2004-05-27 07:21:12 51°23.335 3°2.194 11.1 20 11.3 102350 62
2004-05-27 07:21:18 51°23.359 3°2.197 11.4 20 11.3 102350 62
2004-05-27 07:21:23 51°23.379 3°2.199 12 19 11.3 102350 61
2004-05-27 07:21:29 51°23.402 3°2.202 11.7 17 11.3 102350 61
2004-05-27 07:21:33 51°23.418 3°2.204 10.9 15 11.3 102350 61
2004-05-27 07:21:38 51°23.437 3°2.207 10.9 16 11.3 102350 61
2004-05-27 07:21:43 51°23.457 3°2.209 11 15 11.3 102350 62
2004-05-27 07:21:48 51°23.477 3°2.211 10.4 15 11.3 102350 62
2004-05-27 07:21:53 51°23.496 3°2.214 13.1 16 11.3 102350 61
2004-05-27 07:21:58 51°23.516 3°2.217 13.2 20 11.3 102350 61
2004-05-27 07:22:03 51°23.535 3°2.219 12.5 20 11.3 102350 61
2004-05-27 07:22:08 51°23.555 3°2.221 13 20 11.3 102350 61
2004-05-27 07:22:13 51°23.575 3°2.224 11.8 25 11.3 102360 61
2004-05-27 07:22:18 51°23.594 3°2.227 11.6 24 11.3 102360 61
2004-05-27 07:22:24 51°23.618 3°2.229 11.8 23 11.3 102330 62
2004-05-27 07:22:28 51°23.634 3°2.232 12.1 24 11.3 102330 62
2004-05-27 07:22:32 51°23.649 3°2.234 12.1 25 11.3 102350 62
2004-05-27 07:22:37 51°23.669 3°2.236 11.7 22 11.3 102350 62
2004-05-27 07:22:43 51°23.692 3°2.239 12.4 21 11.3 102340 62
2004-05-27 07:22:49 51°23.716 3°2.242 11.8 23 11.3 102340 62
2004-05-27 07:22:53 51°23.731 3°2.245 11.6 19 11.3 102360 61
2004-05-27 07:22:58 51°23.751 3°2.247 13.1 21 11.3 102360 61
2004-05-27 07:23:03 51°23.771 3°2.249 11.7 23 11.3 102350 62
2004-05-27 07:23:08 51°23.79 3°2.252 11.9 26 11.3 102350 62
2004-05-27 07:23:13 51°23.81 3°2.254 12 24 11.3 102350 63
2004-05-27 07:23:18 51°23.829 3°2.257 11.2 24 11.3 102350 63
2004-05-27 07:23:21 51°23.841 3°2.259 11.7 24 11.3 102350 62
2004-05-27 07:23:28 51°23.869 3°2.263 11.5 21 11.3 102350 62
2004-05-27 07:23:33 51°23.889 3°2.265 11.3 23 11.3 102350 63
2004-05-27 07:23:38 51°23.908 3°2.268 12.4 21 11.3 102350 63
2004-05-27 07:23:42 51°23.924 3°2.271 12.4 18 11.3 102350 63
2004-05-27 07:23:49 51°23.952 3°2.275 12 20 11.3 102350 63
2004-05-27 07:23:53 51°23.967 3°2.277 11.2 14 11.3 102350 62
2004-05-27 07:23:57 51°23.983 3°2.279 11.5 14 11.3 102350 62
2004-05-27 07:24:04 51°24.011 3°2.283 11.3 17 11.3 102360 62
2004-05-27 07:24:08 51°24.027 3°2.286 11.1 20 11.3 102360 62
2004-05-27 07:24:13 51°24.046 3°2.288 10.6 21 11.3 102350 61
2004-05-27 07:24:18 51°24.066 3°2.291 10.6 19 11.3 102350 61
2004-05-27 07:24:23 51°24.086 3°2.293 10.2 20 11.3 102350 61
2004-05-27 07:24:29 51°24.11 3°2.297 10.5 14 11.3 102350 61
2004-05-27 07:24:33 51°24.125 3°2.299 10.8 22 11.3 102350 62
2004-05-27 07:24:37 51°24.141 3°2.301 10.7 19 11.3 102350 62
2004-05-27 07:24:44 51°24.169 3°2.305 10.6 23 11.3 102360 62
2004-05-27 07:24:49 51°24.189 3°2.308 11.2 23 11.3 102360 62
2004-05-27 07:24:52 51°24.2 3°2.31 10.9 22 11.3 102350 61
2004-05-27 07:24:58 51°24.224 3°2.313 11.1 24 11.3 102350 61
2004-05-27 07:25:02 51°24.24 3°2.316 10.3 17 11.3 102360 62
2004-05-27 07:25:09 51°24.267 3°2.32 9.9 15 11.3 102360 62
2004-05-27 07:25:13 51°24.283 3°2.322 11.8 15 11.3 102350 62
2004-05-27 07:25:18 51°24.303 3°2.325 11.9 21 11.3 102350 62
2004-05-27 07:25:24 51°24.326 3°2.328 12.6 18 11.3 102360 62
2004-05-27 07:25:28 51°24.342 3°2.33 11.8 18 11.3 102360 62
2004-05-27 07:25:32 51°24.358 3°2.333 11.2 23 11.3 102360 62
2004-05-27 07:25:39 51°24.385 3°2.337 11.8 23 11.3 102360 62
2004-05-27 07:25:44 51°24.405 3°2.339 12.6 18 11.3 102350 62
2004-05-27 07:25:48 51°24.421 3°2.342 12.5 19 11.3 102350 62
2004-05-27 07:25:53 51°24.44 3°2.345 12.6 23 11.3 102350 62
2004-05-27 07:25:58 51°24.46 3°2.348 11.7 17 11.3 102350 62
2004-05-27 07:26:01 51°24.471 3°2.349 12.3 16 11.3 102360 63
2004-05-27 07:26:09 51°24.503 3°2.354 12.4 18 11.3 102360 63
2004-05-27 07:26:14 51°24.522 3°2.356 12.1 23 11.3 102350 64
2004-05-27 07:26:18 51°24.538 3°2.357 11.2 26 11.3 102350 64
2004-05-27 07:26:22 51°24.554 3°2.359 11.1 24 11.3 102350 64
2004-05-27 07:26:28 51°24.577 3°2.362 11.3 24 11.3 102350 64
2004-05-27 07:26:32 51°24.593 3°2.364 11.1 23 11.3 102350 63
2004-05-27 07:26:38 51°24.616 3°2.367 11.9 23 11.3 102350 63
2004-05-27 07:26:44 51°24.64 3°2.37 11.1 23 11.3 102360 62
2004-05-27 07:26:48 51°24.656 3°2.372 11.2 18 11.3 102360 62
2004-05-27 07:26:53 51°24.675 3°2.375 11.1 21 11.3 102350 63
2004-05-27 07:26:58 51°24.695 3°2.377 10.7 13 11.3 102350 63
2004-05-27 07:27:04 51°24.718 3°2.383 12.4 8 11.3 102360 62
2004-05-27 07:27:09 51°24.738 3°2.39 12.4 9 11.3 102360 62
2004-05-27 07:27:13 51°24.753 3°2.397 12 7 11.3 102360 63
2004-05-27 07:27:18 51°24.772 3°2.407 11.3 5 11.3 102360 63
2004-05-27 07:27:23 51°24.79 3°2.418 11.2 357 11.3 102360 62
2004-05-27 07:27:29 51°24.812 3°2.432 12.6 4 11.3 102360 62
2004-05-27 07:27:33 51°24.827 3°2.443 12.6 3 11.3 102350 62
2004-05-27 07:27:38 51°24.844 3°2.459 11.9 3 11.3 102350 62
2004-05-27 07:27:44 51°24.864 3°2.479 11.9 4 11.3 102360 63
2004-05-27 07:27:48 51°24.877 3°2.493 11.5 1 11.3 102360 63
2004-05-27 07:27:54 51°24.897 3°2.516 12.1 1 11.3 102350 63
2004-05-27 07:27:58 51°24.909 3°2.531 11.7 359 11.3 102350 63
2004-05-27 07:28:02 51°24.922 3°2.547 12 358 11.3 102350 62
2004-05-27 07:28:09 51°24.942 3°2.578 11.8 352 11.3 102350 62
2004-05-27 07:28:12 51°24.951 3°2.593 11.3 351 11.2 102360 61
2004-05-27 07:28:17 51°24.964 3°2.616 11.1 355 11.2 102360 61
2004-05-27 07:28:24 51°24.982 3°2.65 11.2 354 11.2 102350 61
2004-05-27 07:28:29 51°24.995 3°2.676 11.9 355 11.2 102350 61
2004-05-27 07:28:32 51°25.002 3°2.691 13.1 355 11.2 102350 62
2004-05-27 07:28:38 51°25.018 3°2.72 13 1 11.2 102350 62
2004-05-27 07:28:42 51°25.028 3°2.74 11.7 4 11.2 102350 61
2004-05-27 07:28:48 51°25.044 3°2.77 12.1 3 11.2 102350 61
2004-05-27 07:28:53 51°25.057 3°2.794 12.2 3 11.2 102350 62
2004-05-27 07:28:58 51°25.07 3°2.819 11.9 9 11.2 102350 62
2004-05-27 07:29:01 51°25.078 3°2.834 12.7 4 11.3 102350 63
2004-05-27 07:29:09 51°25.098 3°2.874 12.7 3 11.3 102350 63
2004-05-27 07:29:13 51°25.109 3°2.894 11.8 4 11.3 102350 63
2004-05-27 07:29:18 51°25.121 3°2.92 12 4 11.3 102350 63
2004-05-27 07:29:24 51°25.136 3°2.95 11.1 7 11.3 102360 62
2004-05-27 07:29:29 51°25.148 3°2.977 10.8   11.3 102360 62
2004-05-27 07:29:33 51°25.157 3°2.998 11.9   11.3 102360 62
2004-05-27 07:29:38 51°25.169 3°3.024 11.7 2 11.3 102360 62
2004-05-27 07:29:44 51°25.181 3°3.058 11.6 1 11.3 102360 62
2004-05-27 07:29:48 51°25.189 3°3.081 12.6 360 11.3 102360 62
2004-05-27 07:29:53 51°25.198 3°3.11 12.3 1 11.3 102370 62
2004-05-27 07:29:58 51°25.207 3°3.139 11.9 1 11.3 102370 62
2004-05-27 07:30:04 51°25.216 3°3.175 10.9 357 11.3 102360 62
2004-05-27 07:30:09 51°25.224 3°3.204 11.9 356 11.3 102360 62
2004-05-27 07:30:13 51°25.229 3°3.229 11.5 352 11.3 102360 62
2004-05-27 07:30:18 51°25.236 3°3.259 10.7 356 11.3 102360 62
2004-05-27 07:30:24 51°25.244 3°3.295 10.3 353 11.2 102360 61
2004-05-27 07:30:29 51°25.251 3°3.325 10.4   11.2 102360 61
2004-05-27 07:30:32 51°25.254 3°3.344 11.5 353 11.2 102360 61
2004-05-27 07:30:38 51°25.262 3°3.379 11.8 355 11.2 102360 61
2004-05-27 07:30:44 51°25.269 3°3.416 12.4 350 11.3 102360 62
2004-05-27 07:30:48 51°25.275 3°3.44 11.2 349 11.3 102360 62
2004-05-27 07:30:53 51°25.281 3°3.471 11.3 348 11.3 102360 63
2004-05-27 07:30:58 51°25.288 3°3.5 10.8 351 11.3 102360 63
2004-05-27 07:31:03 51°25.294 3°3.53 11.3 351 11.3 102350 63
2004-05-27 07:31:09 51°25.302 3°3.566 11 355 11.3 102350 63
2004-05-27 07:31:13 51°25.308 3°3.591 10.7 353 11.3 102350 63
2004-05-27 07:31:18 51°25.315 3°3.62 10.7 354 11.3 102350 63
2004-05-27 07:31:23 51°25.322 3°3.65 11.3 358 11.3 102350 63
2004-05-27 07:31:28 51°25.329 3°3.68 11.6 355 11.3 102350 63
2004-05-27 07:31:33 51°25.336 3°3.71 11.9 354 11.3 102360 63
2004-05-27 07:31:38 51°25.342 3°3.74 11.3 354 11.3 102360 63
2004-05-27 07:31:44 51°25.351 3°3.775 12 347 11.3 102360 63
2004-05-27 07:31:49 51°25.358 3°3.805 12.8 344 11.3 102360 63
2004-05-27 07:31:52 51°25.362 3°3.823 11 347 11.4 102350 64
2004-05-27 07:31:58 51°25.37 3°3.86 11 341 11.4 102350 64
2004-05-27 07:32:02 51°25.376 3°3.883 11.9 343 11.4 102350 65
2004-05-27 07:32:09 51°25.385 3°3.925 11.1 346 11.4 102350 65
2004-05-27 07:32:13 51°25.391 3°3.95 11.5 348 11.3 102340 64
2004-05-27 07:32:18 51°25.398 3°3.98 10.8 350 11.3 102340 64
2004-05-27 07:32:24 51°25.406 3°4.016 11.5 351 11.4 102350 63
2004-05-27 07:32:29 51°25.413 3°4.046 10.9 350 11.4 102350 63
2004-05-27 07:32:32 51°25.418 3°4.064 11.9 355 11.4 102350 63
2004-05-27 07:32:38 51°25.426 3°4.099 11.2 356 11.4 102350 63
2004-05-27 07:32:42 51°25.432 3°4.124 11.2 354 11.4 102350 63
2004-05-27 07:32:49 51°25.442 3°4.165 11.4 356 11.4 102350 63
2004-05-27 07:32:53 51°25.448 3°4.189 10.9 355 11.4 102360 64
2004-05-27 07:32:58 51°25.455 3°4.218 10.7 354 11.4 102360 64
2004-05-27 07:33:04 51°25.464 3°4.254 10.4 351 11.3 102360 62
2004-05-27 07:33:08 51°25.47 3°4.278 10.3 353 11.3 102360 62
2004-05-27 07:33:14 51°25.478 3°4.314 10.6 351 11.3 102360 63
2004-05-27 07:33:18 51°25.485 3°4.337 10.7   11.3 102360 63
2004-05-27 07:33:24 51°25.494 3°4.373 11.2 353 11.3 102370 62
2004-05-27 07:33:28 51°25.499 3°4.397 11.4 354 11.3 102370 62
2004-05-27 07:33:33 51°25.507 3°4.427 12 357 11.3 102360 62
2004-05-27 07:33:38 51°25.514 3°4.457 12.5 353 11.3 102360 62
2004-05-27 07:33:44 51°25.523 3°4.493 12.1 351 11.3 102360 62
2004-05-27 07:33:48 51°25.529 3°4.517 12 352 11.3 102360 62
2004-05-27 07:33:53 51°25.536 3°4.546 11.8 352 11.3 102360 63
2004-05-27 07:33:58 51°25.544 3°4.576 12 348 11.3 102360 63
2004-05-27 07:34:04 51°25.552 3°4.612 11.8 353 11.3 102360 62
2004-05-27 07:34:08 51°25.559 3°4.635 11.6 352 11.3 102360 62
2004-05-27 07:34:14 51°25.568 3°4.671 11.1 349 11.3 102350 62
2004-05-27 07:34:18 51°25.574 3°4.695 11.3 351 11.3 102350 62
2004-05-27 07:34:24 51°25.583 3°4.73 10.3 351 11.3 102360 62
2004-05-27 07:34:28 51°25.589 3°4.754 10.9 349 11.3 102360 62
2004-05-27 07:34:33 51°25.597 3°4.784 11.1 346 11.3 102360 62
2004-05-27 07:34:38 51°25.605 3°4.813 10.7 347 11.3 102360 62
2004-05-27 07:34:42 51°25.611 3°4.837 10.5 346 11.3 102350 62
2004-05-27 07:34:48 51°25.62 3°4.873 10.5 347 11.3 102350 62
2004-05-27 07:34:53 51°25.629 3°4.902 10.4 347 11.3 102360 62
2004-05-27 07:34:58 51°25.636 3°4.932 10.5 345 11.3 102360 62
2004-05-27 07:35:04 51°25.646 3°4.968 10.3 347 11.3 102360 62
2004-05-27 07:35:08 51°25.652 3°4.992 11.4 347 11.3 102360 62
2004-05-27 07:35:12 51°25.659 3°5.016 11.3 353 11.3 102350 62
2004-05-27 07:35:18 51°25.668 3°5.051 11.3 349 11.3 102350 62
2004-05-27 07:35:23 51°25.676 3°5.081 11.8 348 11.4 102360 62
2004-05-27 07:35:29 51°25.685 3°5.117 11.6 351 11.4 102360 62
2004-05-27 07:35:33 51°25.691 3°5.141 11.3 348 11.4 102360 62
2004-05-27 07:35:38 51°25.699 3°5.17 11.3 346 11.4 102360 62
2004-05-27 07:35:43 51°25.707 3°5.2 11 349 11.4 102360 63
2004-05-27 07:35:48 51°25.715 3°5.229 11.1 347 11.4 102360 63
2004-05-27 07:35:54 51°25.724 3°5.265 10.8 345 11.4 102360 62
2004-05-27 07:35:58 51°25.731 3°5.288 10.9 344 11.4 102360 62
2004-05-27 07:36:03 51°25.739 3°5.318 11.5 350 11.4 102350 62
2004-05-27 07:36:08 51°25.747 3°5.347 11.7 346 11.4 102350 62
2004-05-27 07:36:13 51°25.755 3°5.377 11.5 346 11.4 102350 62
2004-05-27 07:36:18 51°25.763 3°5.406 11.5 347 11.4 102350 62
2004-05-27 07:36:24 51°25.772 3°5.441 11.2 351 11.4 102360 63
2004-05-27 07:36:28 51°25.778 3°5.465 11.1 351 11.4 102360 63
2004-05-27 07:36:34 51°25.788 3°5.5 11 347 11.4 102360 63
2004-05-27 07:36:38 51°25.794 3°5.524 10.5 352 11.4 102360 63
2004-05-27 07:36:44 51°25.803 3°5.559 11.4 354 11.4 102360 64
2004-05-27 07:36:49 51°25.81 3°5.59 11.2 352 11.4 102360 64
2004-05-27 07:36:53 51°25.817 3°5.613 11.4 354 11.4 102360 64
2004-05-27 07:36:57 51°25.822 3°5.637 12.6 350 11.4 102360 64
2004-05-27 07:37:04 51°25.833 3°5.678 10.8 352 11.4 102360 64
2004-05-27 07:37:09 51°25.84 3°5.708 11.4 352 11.4 102360 64
2004-05-27 07:37:13 51°25.847 3°5.731 11.6 358 11.4 102350 65
2004-05-27 07:37:18 51°25.854 3°5.761 12.3 347 11.4 102350 65
2004-05-27 07:37:23 51°25.863 3°5.79 11.6 353 11.4 102360 64
2004-05-27 07:37:29 51°25.872 3°5.825 12.4 347 11.4 102360 64
2004-05-27 07:37:33 51°25.879 3°5.849 12.4 346 11.4 102360 64
2004-05-27 07:37:38 51°25.886 3°5.878 12.2 346 11.4 102360 64
2004-05-27 07:37:44 51°25.895 3°5.914 11.5 347 11.4 102360 65
2004-05-27 07:37:48 51°25.902 3°5.937 12.1 353 11.4 102360 65
2004-05-27 07:37:53 51°25.909 3°5.967 11 349 11.4 102350 64
2004-05-27 07:37:58 51°25.917 3°5.997 11.3 348 11.4 102350 64
2004-05-27 07:38:03 51°25.925 3°6.026 11.1 352 11.4 102350 63
2004-05-27 07:38:09 51°25.934 3°6.062 11.8 346 11.4 102350 63
2004-05-27 07:38:13 51°25.94 3°6.085 10.9 348 11.4 102370 62
2004-05-27 07:38:18 51°25.948 3°6.115 11.1 343 11.4 102370 62
2004-05-27 07:38:24 51°25.958 3°6.15 11.3 346 11.4 102360 62
2004-05-27 07:38:28 51°25.964 3°6.174 11.3 341 11.4 102360 62
2004-05-27 07:38:33 51°25.972 3°6.203 11.1 349 11.3 102350 63
2004-05-27 07:38:38 51°25.98 3°6.233 10.7 347 11.3 102350 63
2004-05-27 07:38:42 51°25.986 3°6.256 10.4 352 11.3 102350 63
2004-05-27 07:38:49 51°25.997 3°6.297 10.2 344 11.3 102350 63
2004-05-27 07:38:53 51°26.003 3°6.321 11.5 345 11.4 102360 64